Time;durP1;ratioP1;P1;durP2;ratioP2;P2;SDS_P1;SDS_P2;PMS_P1;PMS_P2;Temp;Humidity;BMP_temperature;BMP_pressure;BME280_temperature;BME280_humidity;BME280_pressure;Samples;Min_cycle;Max_cycle;Signal;HPM_P1;HPM_P2
2022/04/29 00:00:10;;;;;;;3.33;1.70;;;20.30;41.70;;;;;;4976100;28;20066;-85
2022/04/29 00:02:36;;;;;;;3.92;1.50;;;20.30;41.60;;;;;;4954551;28;20030;-85
2022/04/29 00:05:03;;;;;;;4.15;1.70;;;20.30;41.60;;;;;;4960313;28;20084;-85
2022/04/29 00:07:29;;;;;;;2.95;1.63;;;20.30;41.60;;;;;;4961499;28;20041;-85
2022/04/29 00:09:54;;;;;;;4.82;1.65;;;20.30;41.60;;;;;;4958362;28;20058;-85
2022/04/29 00:12:20;;;;;;;2.30;1.67;;;20.20;41.50;;;;;;4958190;28;20039;-85
2022/04/29 00:14:47;;;;;;;1.92;1.40;;;20.30;41.60;;;;;;4959275;28;20035;-85
2022/04/29 00:17:12;;;;;;;2.80;1.67;;;20.30;41.60;;;;;;4975679;28;20376;-85
2022/04/29 00:19:39;;;;;;;2.45;1.60;;;20.30;41.50;;;;;;4975733;28;20100;-85
2022/04/29 00:22:04;;;;;;;2.35;1.38;;;20.20;41.40;;;;;;4957542;28;20081;-85
2022/04/29 00:24:31;;;;;;;2.55;1.65;;;20.20;41.50;;;;;;4965014;28;20038;-85
2022/04/29 00:26:58;;;;;;;2.75;1.92;;;20.20;41.40;;;;;;4963550;28;20053;-85
2022/04/29 00:29:24;;;;;;;3.25;1.65;;;20.30;41.40;;;;;;4973346;28;20053;-85
2022/04/29 00:31:50;;;;;;;3.95;1.42;;;20.20;41.40;;;;;;4963547;28;20387;-85
2022/04/29 00:34:16;;;;;;;2.95;1.40;;;20.20;41.40;;;;;;4973883;28;20047;-85
2022/04/29 00:36:42;;;;;;;3.22;1.77;;;20.20;41.40;;;;;;4963570;28;20057;-85
2022/04/29 00:39:08;;;;;;;1.73;1.45;;;20.20;41.40;;;;;;4973202;28;20502;-85
2022/04/29 00:41:34;;;;;;;3.15;1.58;;;20.20;41.30;;;;;;4958152;28;20064;-85
2022/04/29 00:44:08;;;;;;;4.15;1.60;;;20.20;41.30;;;;;;4974112;28;20046;-84
2022/04/29 00:46:42;;;;;;;4.43;1.67;;;20.20;41.30;;;;;;4977367;28;20078;-85
2022/04/29 00:49:14;;;;;;;2.03;1.50;;;20.20;41.30;;;;;;4959879;28;20182;-85
2022/04/29 00:51:44;;;;;;;2.35;1.40;;;20.20;41.20;;;;;;4977590;28;20034;-85
2022/04/29 00:54:14;;;;;;;3.35;1.77;;;20.20;41.20;;;;;;4975823;28;20499;-84
2022/04/29 00:56:42;;;;;;;3.13;1.70;;;20.20;41.20;;;;;;4959703;28;20030;-84
2022/04/29 00:59:09;;;;;;;3.28;1.52;;;20.20;41.20;;;;;;4961160;28;20039;-85
2022/04/29 01:01:37;;;;;;;2.88;1.67;;;20.10;41.10;;;;;;4976507;28;20513;-85
2022/04/29 01:04:04;;;;;;;3.67;1.48;;;20.10;41.10;;;;;;4975564;28;20229;-85
2022/04/29 01:06:31;;;;;;;4.47;1.67;;;20.20;41.10;;;;;;4961137;28;20054;-84
2022/04/29 01:08:56;;;;;;;3.08;1.63;;;20.20;41.10;;;;;;4960163;28;20080;-85
2022/04/29 01:11:24;;;;;;;2.42;1.38;;;20.20;41.10;;;;;;4974965;28;20485;-84
2022/04/29 01:13:51;;;;;;;3.60;1.80;;;20.20;41.10;;;;;;4962170;28;20063;-85
2022/04/29 01:16:18;;;;;;;2.60;1.80;;;20.20;41.10;;;;;;4959128;28;20039;-84
2022/04/29 01:18:46;;;;;;;3.50;1.70;;;20.10;41.00;;;;;;4965950;28;20050;-85
2022/04/29 01:21:14;;;;;;;4.00;1.40;;;20.20;41.90;;;;;;4959663;28;20046;-85
2022/04/29 01:23:41;;;;;;;2.95;1.55;;;20.20;41.00;;;;;;4975012;28;20110;-85
2022/04/29 01:26:07;;;;;;;3.85;1.58;;;20.10;41.00;;;;;;4965697;28;20659;-85
2022/04/29 01:28:35;;;;;;;2.20;1.40;;;20.20;41.00;;;;;;4973910;28;20039;-85
2022/04/29 01:31:03;;;;;;;2.35;1.30;;;20.10;41.00;;;;;;4960189;28;20125;-85
2022/04/29 01:33:29;;;;;;;2.78;1.30;;;20.10;41.00;;;;;;4974971;28;20172;-84
2022/04/29 01:35:55;;;;;;;2.70;1.63;;;20.10;41.70;;;;;;4966463;28;20513;-84
2022/04/29 01:38:22;;;;;;;3.70;1.50;;;20.10;41.00;;;;;;4958065;28;20440;-85
2022/04/29 01:40:47;;;;;;;2.03;1.23;;;20.10;41.00;;;;;;4977137;28;20042;-85
2022/04/29 01:43:13;;;;;;;1.75;1.40;;;20.10;41.00;;;;;;4959903;28;20047;-84
2022/04/29 01:45:39;;;;;;;2.00;1.20;;;20.10;41.00;;;;;;4975209;28;20049;-85
2022/04/29 01:48:07;;;;;;;2.42;1.35;;;20.10;41.00;;;;;;4967398;28;20074;-84
2022/04/29 01:50:35;;;;;;;;;;;20.10;40.90;;;;;;4962456;28;20054;-84
2022/04/29 01:53:04;;;;;;;2.72;1.40;;;20.10;40.80;;;;;;4959384;28;20047;-85
2022/04/29 01:55:30;;;;;;;3.15;1.50;;;20.00;41.00;;;;;;4974360;28;20041;-85
2022/04/29 01:57:56;;;;;;;2.40;1.50;;;20.10;41.00;;;;;;4960125;28;20046;-85
2022/04/29 02:00:25;;;;;;;2.53;1.33;;;20.10;41.00;;;;;;4959417;28;20281;-84
2022/04/29 02:02:51;;;;;;;3.42;1.60;;;20.10;40.90;;;;;;4971621;28;20129;-85
2022/04/29 02:05:18;;;;;;;2.33;1.35;;;20.10;40.90;;;;;;4956411;28;20054;-85
2022/04/29 02:07:46;;;;;;;2.60;1.40;;;20.00;40.90;;;;;;4964967;28;20104;-85
2022/04/29 02:10:24;;;;;;;3.75;1.60;;;20.10;40.90;;;;;;4958535;28;20050;-85
2022/04/29 02:33:53;;;;;;;2.38;1.48;;;20.00;40.90;;;;;;4960458;28;20047;-58
2022/04/29 02:36:19;;;;;;;2.72;1.38;;;20.00;40.90;;;;;;4964448;28;20507;-61
2022/04/29 02:38:45;;;;;;;3.22;1.73;;;19.90;40.80;;;;;;4964018;28;20058;-59
2022/04/29 02:41:10;;;;;;;2.20;1.30;;;20.00;40.80;;;;;;4963812;28;20715;-61
2022/04/29 02:43:36;;;;;;;2.08;1.58;;;20.00;40.80;;;;;;4977909;28;20532;-59
2022/04/29 02:46:02;;;;;;;2.58;1.40;;;20.00;40.80;;;;;;4965400;28;20198;-58
2022/04/29 02:48:27;;;;;;;3.08;1.40;;;20.00;40.80;;;;;;4965590;28;20085;-61
2022/04/29 02:50:53;;;;;;;2.22;1.27;;;20.00;40.80;;;;;;4964171;28;20105;-58
2022/04/29 02:53:19;;;;;;;2.83;1.50;;;20.00;40.80;;;;;;4965114;28;20487;-59
2022/04/29 02:55:45;;;;;;;3.78;1.80;;;20.00;40.80;;;;;;4979203;28;20049;-58
2022/04/29 02:58:11;;;;;;;3.22;1.60;;;20.00;40.70;;;;;;4964244;28;20486;-58
2022/04/29 03:00:38;;;;;;;3.20;1.45;;;20.00;40.70;;;;;;4964823;28;20172;-59
2022/04/29 03:03:03;;;;;;;4.22;1.52;;;20.00;40.80;;;;;;4964988;28;20419;-59
2022/04/29 03:05:29;;;;;;;3.65;1.85;;;20.00;40.70;;;;;;4963666;28;20042;-58
2022/04/29 03:07:55;;;;;;;3.75;1.55;;;20.00;40.70;;;;;;4966026;28;20035;-58
2022/04/29 03:10:20;;;;;;;2.40;1.52;;;20.00;40.80;;;;;;4962981;28;20097;-58
2022/04/29 03:12:46;;;;;;;2.55;1.40;;;20.00;40.70;;;;;;4947447;28;20074;-58
2022/04/29 03:15:18;;;;;;;3.22;1.48;;;19.90;40.60;;;;;;4962705;28;20233;-60
2022/04/29 03:20:33;;;;;;;2.05;1.20;;;19.90;40.80;;;;;;4965449;28;20109;-58
2022/04/29 03:22:58;;;;;;;3.92;1.52;;;19.90;40.60;;;;;;4965806;28;20104;-58
2022/04/29 03:25:24;;;;;;;2.53;1.50;;;19.90;40.60;;;;;;4964382;28;20046;-60
2022/04/29 03:27:49;;;;;;;3.13;1.65;;;20.00;40.60;;;;;;4964929;28;20042;-60
2022/04/29 03:30:15;;;;;;;2.08;1.55;;;19.90;40.60;;;;;;4963968;28;20573;-59
2022/04/29 03:32:41;;;;;;;3.50;1.80;;;19.90;40.60;;;;;;4964585;28;20050;-59
2022/04/29 03:35:07;;;;;;;1.92;1.30;;;19.90;40.60;;;;;;4964059;28;20051;-61
2022/04/29 03:37:33;;;;;;;4.45;1.98;;;19.90;40.60;;;;;;4962805;28;20718;-58
2022/04/29 03:39:58;;;;;;;2.58;1.60;;;19.90;40.50;;;;;;4963696;28;20046;-60
2022/04/29 03:42:24;;;;;;;2.78;1.77;;;19.90;40.50;;;;;;4964224;28;20104;-58
2022/04/29 03:44:49;;;;;;;3.53;1.40;;;19.90;40.50;;;;;;4962690;28;20042;-60
2022/04/29 03:47:15;;;;;;;3.38;1.58;;;19.90;40.50;;;;;;4964041;28;20122;-59
2022/04/29 03:49:40;;;;;;;2.28;1.88;;;19.90;40.60;;;;;;4964680;28;20043;-58
2022/04/29 03:52:06;;;;;;;3.22;1.70;;;19.90;40.50;;;;;;4962155;28;20046;-60
2022/04/29 03:54:32;;;;;;;2.95;1.48;;;19.90;40.60;;;;;;4963019;28;20031;-59
2022/04/29 03:56:58;;;;;;;2.92;1.60;;;19.90;40.50;;;;;;4963712;28;20047;-57
2022/04/29 03:59:24;;;;;;;2.25;1.65;;;19.90;40.50;;;;;;4963308;28;20031;-57
2022/04/29 04:01:49;;;;;;;3.30;1.55;;;19.90;40.50;;;;;;4956416;28;21840;-60
2022/04/29 04:04:15;;;;;;;2.00;1.52;;;19.90;40.50;;;;;;4960747;28;20471;-59
2022/04/29 04:06:49;;;;;;;3.15;1.65;;;19.90;40.50;;;;;;4961663;28;20040;-59
2022/04/29 04:09:17;;;;;;;2.05;1.40;;;19.90;40.50;;;;;;4962367;28;20412;-60
2022/04/29 04:11:43;;;;;;;4.07;1.70;;;19.90;40.50;;;;;;4964067;28;20047;-62
2022/04/29 04:14:09;;;;;;;2.50;1.50;;;19.90;40.50;;;;;;4962374;28;20522;-60
2022/04/29 04:16:36;;;;;;;3.08;1.65;;;19.80;40.40;;;;;;4962307;28;20550;-59
2022/04/29 04:19:03;;;;;;;3.05;1.48;;;19.90;40.50;;;;;;4962127;28;20034;-59
2022/04/29 04:21:28;;;;;;;1.70;1.42;;;19.90;40.50;;;;;;4958195;28;20043;-59
2022/04/29 04:23:54;;;;;;;2.28;1.50;;;19.80;40.40;;;;;;4949142;28;20630;-58
2022/04/29 04:26:20;;;;;;;3.95;1.40;;;19.80;40.40;;;;;;4966077;28;20157;-59
2022/04/29 04:28:46;;;;;;;2.88;1.60;;;19.90;40.50;;;;;;4957176;28;20656;-58
2022/04/29 04:31:11;;;;;;;2.92;1.40;;;19.90;40.50;;;;;;4968015;28;20109;-58
2022/04/29 04:33:37;;;;;;;2.70;1.42;;;19.80;40.40;;;;;;4968013;28;20054;-59
2022/04/29 04:36:04;;;;;;;2.13;1.33;;;19.80;40.40;;;;;;4967641;28;20746;-59
2022/04/29 04:38:33;;;;;;;2.60;1.50;;;19.80;40.40;;;;;;4980758;28;20051;-58
2022/04/29 04:40:59;;;;;;;3.35;1.60;;;19.80;40.40;;;;;;4966296;28;20049;-60
2022/04/29 04:43:27;;;;;;;3.40;1.58;;;19.80;40.50;;;;;;4965108;28;20042;-58
2022/04/29 04:45:53;;;;;;;3.40;1.38;;;19.80;40.40;;;;;;4966605;28;20439;-60
2022/04/29 04:48:19;;;;;;;1.98;1.60;;;19.80;40.40;;;;;;4966446;28;20046;-61
2022/04/29 04:50:45;;;;;;;3.60;1.90;;;19.80;40.40;;;;;;4965024;28;20035;-58
2022/04/29 04:53:11;;;;;;;2.13;1.15;;;19.80;40.50;;;;;;4967668;28;20488;-61
2022/04/29 04:55:37;;;;;;;3.20;1.42;;;19.90;40.50;;;;;;4973821;28;20077;-58
2022/04/29 04:58:02;;;;;;;2.60;1.52;;;19.90;40.50;;;;;;4966027;28;20042;-64
2022/04/29 05:00:28;;;;;;;2.85;1.30;;;19.90;40.60;;;;;;4965245;28;20548;-65
2022/04/29 05:02:54;;;;;;;2.55;1.38;;;19.90;40.80;;;;;;4966951;28;20122;-65
2022/04/29 05:05:20;;;;;;;2.22;1.48;;;19.80;40.90;;;;;;4964255;28;20913;-61
2022/04/29 05:07:45;;;;;;;2.13;1.30;;;19.90;41.10;;;;;;4967258;28;20043;-59
2022/04/29 05:10:12;;;;;;;2.35;1.33;;;19.90;41.10;;;;;;4967555;28;20053;-59
2022/04/29 05:12:39;;;;;;;2.58;1.40;;;19.90;41.20;;;;;;4967569;28;20096;-59
2022/04/29 05:15:05;;;;;;;2.47;1.55;;;19.80;41.20;;;;;;4966123;28;20050;-60
2022/04/29 05:17:31;;;;;;;3.78;1.50;;;19.80;41.30;;;;;;4965950;28;20034;-58
2022/04/29 05:19:56;;;;;;;2.50;1.40;;;19.80;41.30;;;;;;4966662;28;20039;-59
2022/04/29 05:22:22;;;;;;;1.83;1.38;;;19.80;41.40;;;;;;4963765;28;20042;-59
2022/04/29 05:24:48;;;;;;;1.88;1.20;;;19.80;41.40;;;;;;4966436;28;20047;-57
2022/04/29 05:27:13;;;;;;;5.18;1.60;;;19.80;41.50;;;;;;4965557;28;20447;-58
2022/04/29 05:29:39;;;;;;;3.05;1.40;;;19.80;41.50;;;;;;4966821;28;20046;-60
2022/04/29 05:32:06;;;;;;;2.33;1.50;;;19.80;41.50;;;;;;4964529;28;20466;-57
2022/04/29 05:34:33;;;;;;;2.90;1.30;;;19.80;41.60;;;;;;4980842;28;20043;-59
2022/04/29 05:37:00;;;;;;;1.73;1.25;;;19.80;41.60;;;;;;4967670;28;20085;-59
2022/04/29 05:42:18;;;;;;;2.88;1.33;;;19.80;41.60;;;;;;4965526;28;20055;-62
2022/04/29 05:44:44;;;;;;;3.63;1.52;;;19.80;41.60;;;;;;4965620;28;20506;-58
2022/04/29 05:47:10;;;;;;;3.45;1.10;;;19.80;41.60;;;;;;4965932;28;20403;-58
2022/04/29 05:49:36;;;;;;;2.55;1.25;;;19.80;41.80;;;;;;4964496;28;20214;-57
2022/04/29 05:52:03;;;;;;;3.20;1.40;;;19.80;41.70;;;;;;4962858;28;20046;-58
2022/04/29 05:54:30;;;;;;;2.33;1.30;;;19.90;41.80;;;;;;4961969;28;20042;-61
2022/04/29 05:56:57;;;;;;;3.65;1.50;;;19.90;41.90;;;;;;4967038;28;20039;-59
2022/04/29 05:59:22;;;;;;;4.32;1.50;;;19.90;42.00;;;;;;4959799;28;20035;-57
2022/04/29 06:01:48;;;;;;;6.53;1.63;;;19.90;42.20;;;;;;4963231;28;20043;-58
2022/04/29 06:04:13;;;;;;;3.67;1.40;;;19.90;42.40;;;;;;4966251;28;20446;-59
2022/04/29 06:06:39;;;;;;;2.05;1.10;;;20.00;42.60;;;;;;4966057;28;20379;-58
2022/04/29 06:09:05;;;;;;;2.17;1.10;;;20.00;42.70;;;;;;4965917;28;20043;-57
2022/04/29 06:11:30;;;;;;;2.25;1.42;;;19.90;42.60;;;;;;4965496;28;20050;-58
2022/04/29 06:13:56;;;;;;;2.35;1.10;;;20.00;42.80;;;;;;4964422;28;20039;-58
2022/04/29 06:16:21;;;;;;;1.90;1.25;;;20.00;42.70;;;;;;4965911;28;20079;-58
2022/04/29 06:18:47;;;;;;;3.45;1.45;;;20.00;42.70;;;;;;4963110;28;20039;-58
2022/04/29 06:21:13;;;;;;;3.63;1.40;;;20.00;42.70;;;;;;4965903;28;20034;-59
2022/04/29 06:23:39;;;;;;;3.45;1.27;;;20.00;42.70;;;;;;4966682;28;20605;-60
2022/04/29 06:26:05;;;;;;;4.78;1.30;;;20.10;42.70;;;;;;4964716;28;20074;-57
2022/04/29 06:28:32;;;;;;;3.35;1.25;;;20.10;42.70;;;;;;4966044;28;20081;-60
2022/04/29 06:30:58;;;;;;;2.28;0.95;;;20.10;42.80;;;;;;4964727;28;20042;-58
2022/04/29 06:33:23;;;;;;;2.53;1.42;;;20.10;42.80;;;;;;4965613;28;20109;-58
2022/04/29 06:35:50;;;;;;;2.25;1.40;;;20.10;42.80;;;;;;4965609;28;20385;-59
2022/04/29 06:38:15;;;;;;;4.20;1.15;;;20.10;42.70;;;;;;4966206;28;20050;-60
2022/04/29 06:40:41;;;;;;;3.53;1.10;;;20.10;42.70;;;;;;4965499;28;20034;-59
2022/04/29 06:43:07;;;;;;;2.40;1.48;;;20.10;42.70;;;;;;4961426;28;20415;-57
2022/04/29 06:45:32;;;;;;;2.95;1.45;;;20.20;42.70;;;;;;4962267;28;20121;-59
2022/04/29 06:47:58;;;;;;;2.35;1.10;;;20.10;42.80;;;;;;4965126;28;20657;-58
2022/04/29 06:50:23;;;;;;;2.65;1.48;;;20.20;42.80;;;;;;4965634;28;20715;-58
2022/04/29 06:52:49;;;;;;;5.78;1.20;;;20.20;42.90;;;;;;4965902;28;20065;-56
2022/04/29 06:55:15;;;;;;;2.85;1.30;;;20.20;42.90;;;;;;4965525;28;20490;-59
2022/04/29 06:57:40;;;;;;;2.00;1.10;;;20.20;42.80;;;;;;4964614;28;20962;-60
2022/04/29 07:00:08;;;;;;;2.63;1.27;;;20.20;42.90;;;;;;4964763;28;20134;-59
2022/04/29 07:02:33;;;;;;;3.88;1.50;;;20.20;42.80;;;;;;4964736;28;20054;-59
2022/04/29 07:04:59;;;;;;;4.60;1.40;;;20.20;42.70;;;;;;4965988;28;20039;-56
2022/04/29 07:07:28;;;;;;;3.47;1.67;;;20.20;42.70;;;;;;4963714;28;20038;-58
2022/04/29 07:09:54;;;;;;;4.30;1.45;;;20.20;42.80;;;;;;4964744;28;20635;-59
2022/04/29 07:12:20;;;;;;;2.13;1.20;;;20.30;42.90;;;;;;4964116;28;20111;-57
2022/04/29 07:14:46;;;;;;;3.13;1.40;;;20.20;42.80;;;;;;4964618;28;20583;-60
2022/04/29 07:17:12;;;;;;;3.28;1.20;;;20.30;43.00;;;;;;4962440;28;20507;-60
2022/04/29 07:19:37;;;;;;;2.67;1.13;;;20.30;43.00;;;;;;4964708;28;20042;-59
2022/04/29 07:22:04;;;;;;;6.32;2.05;;;20.30;43.00;;;;;;4962554;28;20046;-58
2022/04/29 07:24:30;;;;;;;9.88;3.03;;;20.30;43.00;;;;;;4964357;28;20049;-58
2022/04/29 07:26:57;;;;;;;10.48;4.10;;;20.30;43.90;;;;;;4963749;28;20043;-59
2022/04/29 07:29:22;;;;;;;21.38;6.72;;;20.30;43.30;;;;;;4963129;28;20051;-61
2022/04/29 07:31:48;;;;;;;18.40;6.03;;;20.40;43.50;;;;;;4962082;28;20469;-58
2022/04/29 07:34:14;;;;;;;19.77;6.72;;;20.30;43.60;;;;;;4964302;28;20465;-59
2022/04/29 07:42:08;;;;;;;30.55;9.95;;;20.40;44.00;;;;;;4965015;28;20058;-58
2022/04/29 07:44:34;;;;;;;29.05;10.27;;;20.40;44.10;;;;;;4963029;28;20047;-58
2022/04/29 07:47:00;;;;;;;32.15;10.85;;;20.40;44.30;;;;;;4963286;28;20509;-59
2022/04/29 07:49:26;;;;;;;33.20;10.50;;;20.40;44.40;;;;;;4964101;28;20055;-58
2022/04/29 07:51:51;;;;;;;32.80;10.68;;;20.50;44.50;;;;;;4960591;28;20049;-58
2022/04/29 07:54:17;;;;;;;37.88;12.20;;;20.50;44.80;;;;;;4962471;28;20061;-58
2022/04/29 07:56:43;;;;;;;36.22;12.65;;;20.50;45.00;;;;;;4963851;28;20046;-59
2022/04/29 07:59:08;;;;;;;36.80;12.00;;;20.50;45.10;;;;;;4960463;28;20144;-59
2022/04/29 08:01:38;;;;;;;39.47;12.73;;;20.50;45.20;;;;;;4957736;28;20491;-57
2022/04/29 08:04:04;;;;;;;53.75;16.02;;;20.50;45.40;;;;;;4962251;28;20039;-58
2022/04/29 08:06:30;;;;;;;48.58;14.88;;;20.50;45.60;;;;;;4962084;28;20497;-58
2022/04/29 08:08:56;;;;;;;39.60;13.02;;;20.50;45.80;;;;;;4961488;28;20158;-58
2022/04/29 08:11:22;;;;;;;46.28;13.93;;;20.50;45.80;;;;;;4961071;28;20520;-59
2022/04/29 08:13:48;;;;;;;44.28;12.93;;;20.60;46.10;;;;;;4962396;28;20043;-61
2022/04/29 08:16:15;;;;;;;39.03;12.02;;;20.60;46.10;;;;;;4964506;28;20042;-59
2022/04/29 08:18:41;;;;;;;32.90;11.82;;;20.60;46.00;;;;;;4963636;28;20039;-57
2022/04/29 08:21:07;;;;;;;36.08;12.00;;;20.60;45.80;;;;;;4959734;28;20054;-60
2022/04/29 08:23:33;;;;;;;38.78;10.77;;;20.70;45.90;;;;;;4962388;28;20045;-58
2022/04/29 08:25:58;;;;;;;30.88;11.60;;;20.70;45.80;;;;;;4961579;28;20042;-59
2022/04/29 08:28:26;;;;;;;42.90;14.48;;;20.70;45.70;;;;;;4962569;28;20038;-58
2022/04/29 08:30:52;;;;;;;38.45;14.02;;;20.70;45.90;;;;;;4961621;28;20050;-59
2022/04/29 08:33:18;;;;;;;40.60;12.43;;;20.70;45.80;;;;;;4960953;28;20984;-58
2022/04/29 08:35:44;;;;;;;37.28;11.95;;;20.70;45.50;;;;;;4962768;28;20043;-60
2022/04/29 08:38:11;;;;;;;46.33;14.15;;;20.70;45.40;;;;;;4956920;28;20086;-57
2022/04/29 08:40:46;;;;;;;42.53;11.73;;;20.70;45.40;;;;;;4960289;28;20039;-56
2022/04/29 08:43:14;;;;;;;32.17;11.02;;;20.70;45.40;;;;;;4962267;28;20121;-59
2022/04/29 08:45:42;;;;;;;37.88;10.30;;;20.70;45.20;;;;;;4960259;28;20034;-57
2022/04/29 08:48:08;;;;;;;33.03;10.10;;;20.70;45.00;;;;;;4961513;28;20039;-57
2022/04/29 08:50:34;;;;;;;34.42;11.20;;;20.70;45.00;;;;;;4959499;28;20049;-58
2022/04/29 08:53:00;;;;;;;33.17;10.13;;;20.70;45.10;;;;;;4961307;28;20043;-58
2022/04/29 09:01:13;;;;;;;30.23;9.20;;;20.80;45.10;;;;;;4961090;28;20423;-60
2022/04/29 09:03:42;;;;;;;28.50;8.50;;;20.70;45.10;;;;;;4958748;28;20071;-59
2022/04/29 09:06:08;;;;;;;19.00;7.43;;;20.80;45.80;;;;;;4959876;28;20047;-58
2022/04/29 09:08:42;;;;;;;21.33;6.93;;;20.80;44.90;;;;;;4978604;28;20121;-58
2022/04/29 09:11:09;;;;;;;19.85;6.95;;;20.80;44.70;;;;;;4965711;28;20042;-58
2022/04/29 09:13:39;;;;;;;23.52;7.03;;;20.80;44.70;;;;;;4964896;28;20038;-58
2022/04/29 09:16:06;;;;;;;18.77;6.50;;;20.80;44.60;;;;;;4963784;28;20046;-58
2022/04/29 09:18:34;;;;;;;16.35;5.55;;;20.80;44.20;;;;;;4965184;28;20188;-58
2022/04/29 09:21:04;;;;;;;16.50;5.25;;;20.80;44.20;;;;;;4966077;28;20070;-57
2022/04/29 09:23:30;;;;;;;14.60;4.95;;;20.80;44.00;;;;;;4966066;28;20299;-57
2022/04/29 09:26:01;;;;;;;15.55;4.72;;;20.80;44.00;;;;;;4966412;28;20038;-58
2022/04/29 09:28:27;;;;;;;17.52;5.85;;;20.80;43.90;;;;;;4965814;28;20081;-57
2022/04/29 09:30:56;;;;;;;12.55;5.50;;;20.80;43.80;;;;;;4965441;28;20042;-59
2022/04/29 09:33:24;;;;;;;12.63;4.10;;;20.80;43.80;;;;;;4963550;28;20105;-58
2022/04/29 09:35:50;;;;;;;10.75;4.60;;;20.80;43.80;;;;;;4960935;28;20819;-57
2022/04/29 09:41:01;;;;;;;12.15;4.03;;;20.80;43.80;;;;;;4965854;28;20043;-60
2022/04/29 09:43:46;;;;;;;11.48;4.50;;;20.80;43.80;;;;;;4964656;28;20375;-58
2022/04/29 09:46:20;;;;;;;11.90;4.43;;;20.80;43.80;;;;;;4961790;28;20057;-58
2022/04/29 09:49:06;;;;;;;7.70;3.85;;;20.80;43.50;;;;;;4964534;28;20038;-56
2022/04/29 09:51:39;;;;;;;8.93;3.20;;;20.80;43.10;;;;;;4964837;28;20034;-58
2022/04/29 09:54:21;;;;;;;8.68;3.22;;;20.80;43.20;;;;;;4963432;28;20043;-60
2022/04/29 09:57:02;;;;;;;8.98;3.72;;;20.80;43.00;;;;;;4964606;28;20074;-57
2022/04/29 09:59:36;;;;;;;8.25;3.00;;;20.80;42.70;;;;;;4965091;28;20513;-57
2022/04/29 10:02:02;;;;;;;6.97;3.17;;;20.90;42.70;;;;;;4962028;28;20570;-59
2022/04/29 10:04:34;;;;;;;6.03;2.60;;;20.90;42.60;;;;;;4963687;28;20403;-60
2022/04/29 10:07:04;;;;;;;7.90;3.15;;;20.80;42.40;;;;;;4963992;28;20047;-57
2022/04/29 10:09:34;;;;;;;8.93;2.90;;;20.80;42.30;;;;;;4963840;28;20492;-56
2022/04/29 10:12:02;;;;;;;9.50;2.83;;;20.80;42.30;;;;;;4964346;28;20402;-57
2022/04/29 10:14:31;;;;;;;8.85;2.85;;;20.80;42.20;;;;;;4964652;28;20342;-56
2022/04/29 10:22:52;;;;;;;4.07;2.20;;;20.80;41.90;;;;;;4963967;28;20078;-58
2022/04/29 10:25:20;;;;;;;7.55;2.63;;;20.80;42.10;;;;;;4965956;28;20057;-58
2022/04/29 10:27:48;;;;;;;4.47;2.10;;;20.80;42.40;;;;;;4964732;28;20047;-60
2022/04/29 10:30:15;;;;;;;6.63;2.25;;;20.80;42.50;;;;;;4966289;28;20561;-62
2022/04/29 10:33:03;;;;;;;9.98;2.30;;;20.80;42.50;;;;;;4964677;28;20104;-61
2022/04/29 10:35:42;;;;;;;4.40;2.10;;;20.80;42.20;;;;;;4963800;28;20101;-63
2022/04/29 10:38:34;;;;;;;6.05;2.30;;;20.80;42.00;;;;;;4966222;28;20480;-61
2022/04/29 10:41:06;;;;;;;9.38;2.08;;;20.80;41.90;;;;;;4964756;28;20030;-59
2022/04/29 10:43:32;;;;;;;4.45;2.53;;;20.70;41.80;;;;;;4965136;28;20039;-61
2022/04/29 10:46:04;;;;;;;3.47;1.85;;;20.80;41.70;;;;;;4964793;28;20046;-59
2022/04/29 10:48:31;;;;;;;3.53;2.13;;;20.70;41.50;;;;;;4966659;28;20047;-59
2022/04/29 10:50:57;;;;;;;6.80;1.90;;;20.70;41.40;;;;;;4964234;28;20050;-61
2022/04/29 10:53:24;;;;;;;6.90;2.25;;;20.70;41.30;;;;;;4963955;28;20039;-62
2022/04/29 10:55:50;;;;;;;6.50;1.73;;;20.70;41.00;;;;;;4966196;28;20110;-60
2022/04/29 10:58:23;;;;;;;3.00;1.70;;;20.70;41.00;;;;;;4965045;28;20177;-58
2022/04/29 11:01:22;;;;;;;2.63;1.40;;;20.70;41.20;;;;;;4966878;28;20050;-58
2022/04/29 11:03:47;;;;;;;3.50;1.70;;;20.70;41.50;;;;;;4965400;28;20122;-59
2022/04/29 11:06:14;;;;;;;8.25;1.90;;;20.70;41.60;;;;;;4965317;28;20039;-60
2022/04/29 11:08:41;;;;;;;5.28;1.50;;;20.70;41.30;;;;;;4961335;28;20443;-58
2022/04/29 11:11:07;;;;;;;7.93;1.75;;;20.70;41.50;;;;;;4964084;28;20042;-59
2022/04/29 11:13:42;;;;;;;3.45;1.73;;;20.70;41.60;;;;;;4965411;28;20065;-59
2022/04/29 11:16:16;;;;;;;4.40;1.80;;;20.70;42.00;;;;;;4962105;28;20042;-60
2022/04/29 11:18:43;;;;;;;4.20;1.77;;;20.70;41.90;;;;;;4964128;28;20043;-58
2022/04/29 11:26:49;;;;;;;4.82;1.77;;;20.70;41.60;;;;;;4964863;28;20043;-58
2022/04/29 11:29:17;;;;;;;3.63;1.60;;;20.70;41.30;;;;;;4966382;28;20043;-58
2022/04/29 11:31:43;;;;;;;6.15;1.70;;;20.70;41.60;;;;;;4961665;28;20399;-62
2022/04/29 11:34:10;;;;;;;2.78;1.25;;;20.70;41.50;;;;;;4963751;28;20047;-59
2022/04/29 11:36:37;;;;;;;8.77;1.83;;;20.70;41.60;;;;;;4964249;28;20093;-59
2022/04/29 11:39:19;;;;;;;7.22;1.98;;;20.70;41.50;;;;;;4965004;28;20085;-59
2022/04/29 11:41:55;;;;;;;9.10;2.15;;;20.70;41.30;;;;;;4963880;28;20052;-60
2022/04/29 11:44:34;;;;;;;6.82;1.95;;;20.70;41.20;;;;;;4963163;28;20515;-60
2022/04/29 11:47:01;;;;;;;11.52;2.15;;;20.70;41.20;;;;;;4963950;28;20078;-61
2022/04/29 11:49:32;;;;;;;3.65;1.60;;;20.60;41.00;;;;;;4963745;28;20061;-60
2022/04/29 11:52:22;;;;;;;4.88;1.80;;;20.60;41.00;;;;;;4964840;28;20062;-59
2022/04/29 11:55:14;;;;;;;5.13;2.15;;;20.60;41.00;;;;;;4962750;28;20144;-58
2022/04/29 11:57:49;;;;;;;8.23;1.80;;;20.70;41.10;;;;;;4958373;28;20053;-60
2022/04/29 12:00:24;;;;;;;12.80;1.63;;;20.60;41.00;;;;;;4963074;28;20126;-59
2022/04/29 12:02:50;;;;;;;10.23;2.03;;;20.70;41.10;;;;;;4963296;28;20082;-59
2022/04/29 12:05:16;;;;;;;10.90;1.90;;;20.60;41.40;;;;;;4964742;28;20141;-59
2022/04/29 12:07:46;;;;;;;7.40;1.75;;;20.60;41.80;;;;;;4963725;28;20510;-60
2022/04/29 12:10:23;;;;;;;4.23;1.70;;;20.60;41.80;;;;;;4964843;28;20442;-59
2022/04/29 12:12:56;;;;;;;3.72;1.40;;;20.60;41.40;;;;;;4962646;28;20055;-59
2022/04/29 12:15:37;;;;;;;5.57;1.63;;;20.60;41.20;;;;;;4964073;28;20105;-60
2022/04/29 12:18:08;;;;;;;5.35;1.80;;;20.60;41.20;;;;;;4964043;28;20035;-59
2022/04/29 12:20:34;;;;;;;7.82;1.58;;;20.60;41.20;;;;;;4964498;28;20118;-59
2022/04/29 12:23:11;;;;;;;5.50;1.80;;;20.60;41.30;;;;;;4964210;28;20153;-60
2022/04/29 12:25:42;;;;;;;5.32;1.73;;;20.60;41.30;;;;;;4964363;28;20069;-60
2022/04/29 12:28:20;;;;;;;;;;;20.60;41.50;;;;;;4958747;28;20070;-61
2022/04/29 12:36:48;;;;;;;3.40;1.52;;;20.60;41.60;;;;;;4964701;28;20046;-58
2022/04/29 12:39:15;;;;;;;6.32;1.73;;;20.60;41.80;;;;;;4960413;28;20475;-59
2022/04/29 12:41:42;;;;;;;5.65;1.67;;;20.60;41.90;;;;;;4964237;28;20181;-59
2022/04/29 12:46:56;;;;;;;4.38;1.30;;;20.60;41.80;;;;;;4964259;28;20101;-57
2022/04/29 12:49:22;;;;;;;2.80;1.33;;;20.60;41.90;;;;;;4966970;28;20039;-58
2022/04/29 12:51:58;;;;;;;7.03;1.77;;;20.60;42.00;;;;;;4966664;28;20436;-59
2022/04/29 12:54:25;;;;;;;7.28;1.75;;;20.60;42.00;;;;;;4968094;28;20097;-61
2022/04/29 12:56:51;;;;;;;6.22;1.70;;;20.60;41.90;;;;;;4964947;28;20046;-60
2022/04/29 12:59:24;;;;;;;4.80;1.65;;;20.60;41.90;;;;;;4967663;28;20101;-59
2022/04/29 13:01:50;;;;;;;4.55;1.33;;;20.70;41.90;;;;;;4967798;28;20696;-60
2022/04/29 13:04:15;;;;;;;7.25;1.80;;;20.60;41.80;;;;;;4967201;28;20054;-59
2022/04/29 13:06:41;;;;;;;4.10;1.60;;;20.60;41.80;;;;;;4966707;28;20038;-59
2022/04/29 13:09:07;;;;;;;6.10;1.52;;;20.60;41.70;;;;;;4966951;28;20403;-59
2022/04/29 13:11:32;;;;;;;6.22;1.48;;;20.60;41.70;;;;;;4966880;28;20058;-59
2022/04/29 13:13:59;;;;;;;3.47;1.48;;;20.60;41.70;;;;;;4966796;28;20165;-60
2022/04/29 13:16:24;;;;;;;3.25;1.30;;;20.60;41.60;;;;;;4965398;28;20745;-60
2022/04/29 13:18:51;;;;;;;4.03;1.45;;;20.60;41.60;;;;;;4967598;28;20049;-58
2022/04/29 13:21:17;;;;;;;5.05;1.90;;;20.60;41.60;;;;;;4965566;28;20047;-59
2022/04/29 13:23:44;;;;;;;4.88;1.85;;;20.60;41.60;;;;;;4967355;28;20403;-60
2022/04/29 13:26:13;;;;;;;5.55;1.73;;;20.60;41.60;;;;;;4967654;28;20057;-59
2022/04/29 13:28:38;;;;;;;2.20;1.27;;;20.60;41.50;;;;;;4967031;28;20051;-60
2022/04/29 13:31:04;;;;;;;2.47;1.40;;;20.60;41.60;;;;;;4967436;28;20039;-60
2022/04/29 13:33:32;;;;;;;2.75;1.40;;;20.60;41.50;;;;;;4966043;28;20106;-59
2022/04/29 13:35:57;;;;;;;3.92;1.48;;;20.60;42.30;;;;;;4967093;28;20043;-59
2022/04/29 13:38:24;;;;;;;3.25;1.58;;;20.60;41.40;;;;;;4966976;28;20034;-61
2022/04/29 13:40:50;;;;;;;3.75;2.08;;;20.60;41.40;;;;;;4967736;28;20709;-60
2022/04/29 13:43:17;;;;;;;3.80;1.85;;;20.60;41.60;;;;;;4965205;28;20121;-61
2022/04/29 13:45:44;;;;;;;3.22;1.67;;;20.60;41.70;;;;;;4980010;28;20035;-59
2022/04/29 13:48:12;;;;;;;3.80;1.80;;;20.60;42.00;;;;;;4967355;28;20035;-58